sensor_id;sensor_type;location;lat;lon;timestamp;pressure;altitude;pressure_sealevel;temperature;humidity
7768;BME280;3928;42.626;23.382;2022-10-16T00:01:33;94791.31;;;11.70;84.46
7768;BME280;3928;42.626;23.382;2022-10-16T00:04:01;94798.25;;;11.65;84.53
7768;BME280;3928;42.626;23.382;2022-10-16T00:06:28;94803.63;;;11.49;85.04
7768;BME280;3928;42.626;23.382;2022-10-16T00:08:57;94808.03;;;11.34;87.19
7768;BME280;3928;42.626;23.382;2022-10-16T00:11:26;94818.31;;;11.34;88.08
7768;BME280;3928;42.626;23.382;2022-10-16T00:13:56;94806.34;;;11.33;88.68
7768;BME280;3928;42.626;23.382;2022-10-16T00:16:25;94780.09;;;11.08;89.60
7768;BME280;3928;42.626;23.382;2022-10-16T00:18:52;94803.84;;;11.29;90.31
7768;BME280;3928;42.626;23.382;2022-10-16T00:21:22;94808.97;;;11.29;89.99
7768;BME280;3928;42.626;23.382;2022-10-16T00:23:50;94814.94;;;11.32;90.44
7768;BME280;3928;42.626;23.382;2022-10-16T00:26:19;94818.31;;;11.37;89.80
7768;BME280;3928;42.626;23.382;2022-10-16T00:28:47;94810.53;;;11.42;89.73
7768;BME280;3928;42.626;23.382;2022-10-16T00:31:15;94818.97;;;11.53;89.33
7768;BME280;3928;42.626;23.382;2022-10-16T00:33:43;94826.56;;;11.62;88.79
7768;BME280;3928;42.626;23.382;2022-10-16T00:36:12;94826.47;;;11.70;88.25
7768;BME280;3928;42.626;23.382;2022-10-16T00:38:39;94835.84;;;11.76;87.64
7768;BME280;3928;42.626;23.382;2022-10-16T00:41:06;94840.94;;;11.79;87.23
7768;BME280;3928;42.626;23.382;2022-10-16T00:43:37;94835.78;;;11.82;86.73
7768;BME280;3928;42.626;23.382;2022-10-16T00:46:08;94831.47;;;11.84;86.13
7768;BME280;3928;42.626;23.382;2022-10-16T00:48:37;94832.34;;;11.81;85.88
7768;BME280;3928;42.626;23.382;2022-10-16T00:51:05;94806.19;;;11.46;85.69
7768;BME280;3928;42.626;23.382;2022-10-16T00:53:34;94812.28;;;11.40;85.20
7768;BME280;3928;42.626;23.382;2022-10-16T00:56:01;94800.31;;;11.39;84.85
7768;BME280;3928;42.626;23.382;2022-10-16T00:58:28;94791.91;;;11.25;84.39
7768;BME280;3928;42.626;23.382;2022-10-16T01:00:55;94832.91;;;11.32;84.77
7768;BME280;3928;42.626;23.382;2022-10-16T01:03:25;94829.50;;;11.32;85.64
7768;BME280;3928;42.626;23.382;2022-10-16T01:06:01;94837.13;;;11.36;85.17
7768;BME280;3928;42.626;23.382;2022-10-16T01:08:34;94838.81;;;11.40;85.30
7768;BME280;3928;42.626;23.382;2022-10-16T01:11:10;94841.41;;;11.39;84.61
7768;BME280;3928;42.626;23.382;2022-10-16T01:13:43;94831.25;;;11.30;84.55
7768;BME280;3928;42.626;23.382;2022-10-16T01:16:18;94844.84;;;11.38;84.70
7768;BME280;3928;42.626;23.382;2022-10-16T01:18:52;94843.97;;;11.40;84.71
7768;BME280;3928;42.626;23.382;2022-10-16T01:21:23;94840.50;;;11.43;84.33
7768;BME280;3928;42.626;23.382;2022-10-16T01:24:00;94825.16;;;11.38;83.87
7768;BME280;3928;42.626;23.382;2022-10-16T01:29:24;94835.59;;;11.25;83.45
7768;BME280;3928;42.626;23.382;2022-10-16T01:31:56;94832.50;;;10.89;84.95
7768;BME280;3928;42.626;23.382;2022-10-16T01:34:30;94830.13;;;10.69;86.24
7768;BME280;3928;42.626;23.382;2022-10-16T01:37:04;94813.97;;;10.57;87.48
7768;BME280;3928;42.626;23.382;2022-10-16T01:39:34;94822.56;;;10.51;87.40
7768;BME280;3928;42.626;23.382;2022-10-16T01:42:05;94818.28;;;10.56;87.98
7768;BME280;3928;42.626;23.382;2022-10-16T01:44:35;94812.31;;;10.51;87.51
7768;BME280;3928;42.626;23.382;2022-10-16T01:47:04;94822.66;;;10.42;87.81
7768;BME280;3928;42.626;23.382;2022-10-16T01:49:34;94829.56;;;10.29;87.75
7768;BME280;3928;42.626;23.382;2022-10-16T01:52:06;94811.78;;;10.02;88.33
7768;BME280;3928;42.626;23.382;2022-10-16T01:54:36;94840.84;;;10.07;89.19
7768;BME280;3928;42.626;23.382;2022-10-16T01:57:06;94839.22;;;9.87;89.73
7768;BME280;3928;42.626;23.382;2022-10-16T01:59:38;94836.66;;;9.89;90.43
7768;BME280;3928;42.626;23.382;2022-10-16T02:02:08;94841.81;;;9.78;90.82
7768;BME280;3928;42.626;23.382;2022-10-16T02:04:39;94809.56;;;9.39;93.02
7768;BME280;3928;42.626;23.382;2022-10-16T02:07:09;94832.63;;;9.37;95.03
7768;BME280;3928;42.626;23.382;2022-10-16T02:09:37;94843.72;;;9.38;94.74
7768;BME280;3928;42.626;23.382;2022-10-16T02:12:09;94829.25;;;9.26;95.85
7768;BME280;3928;42.626;23.382;2022-10-16T02:14:41;94811.34;;;9.09;96.59
7768;BME280;3928;42.626;23.382;2022-10-16T02:17:12;94847.19;;;9.19;97.58
7768;BME280;3928;42.626;23.382;2022-10-16T02:19:39;94849.78;;;9.08;100.00
7768;BME280;3928;42.626;23.382;2022-10-16T02:22:08;94849.81;;;9.02;100.00
7768;BME280;3928;42.626;23.382;2022-10-16T02:24:39;94853.22;;;9.01;100.00
7768;BME280;3928;42.626;23.382;2022-10-16T02:27:13;94850.66;;;9.02;100.00
7768;BME280;3928;42.626;23.382;2022-10-16T02:29:52;94854.88;;;9.08;100.00
7768;BME280;3928;42.626;23.382;2022-10-16T02:32:24;94859.16;;;9.14;100.00
7768;BME280;3928;42.626;23.382;2022-10-16T02:34:56;94862.53;;;9.20;100.00
7768;BME280;3928;42.626;23.382;2022-10-16T02:37:24;94843.75;;;9.21;100.00
7768;BME280;3928;42.626;23.382;2022-10-16T02:39:52;94831.81;;;9.20;100.00
7768;BME280;3928;42.626;23.382;2022-10-16T02:42:20;94853.94;;;9.35;100.00
7768;BME280;3928;42.626;23.382;2022-10-16T02:44:48;94843.72;;;9.35;99.16
7768;BME280;3928;42.626;23.382;2022-10-16T02:47:15;94856.50;;;9.49;98.20
7768;BME280;3928;42.626;23.382;2022-10-16T02:49:41;94858.19;;;9.50;98.41
7768;BME280;3928;42.626;23.382;2022-10-16T02:52:08;94859.03;;;9.50;98.63
7768;BME280;3928;42.626;23.382;2022-10-16T02:54:35;94865.00;;;9.54;98.26
7768;BME280;3928;42.626;23.382;2022-10-16T02:57:02;94865.00;;;9.55;98.35
7768;BME280;3928;42.626;23.382;2022-10-16T02:59:29;94870.97;;;9.53;97.96
7768;BME280;3928;42.626;23.382;2022-10-16T03:01:57;94875.28;;;9.48;98.54
7768;BME280;3928;42.626;23.382;2022-10-16T03:04:24;94875.28;;;9.45;98.69
7768;BME280;3928;42.626;23.382;2022-10-16T03:06:51;94877.91;;;9.26;100.00
7768;BME280;3928;42.626;23.382;2022-10-16T03:09:17;94878.78;;;9.10;100.00
7768;BME280;3928;42.626;23.382;2022-10-16T03:11:44;94883.09;;;8.85;100.00
7768;BME280;3928;42.626;23.382;2022-10-16T03:14:11;94878.84;;;8.76;100.00
7768;BME280;3928;42.626;23.382;2022-10-16T03:16:38;94883.09;;;8.79;100.00
7768;BME280;3928;42.626;23.382;2022-10-16T03:19:06;94882.25;;;8.89;100.00
7768;BME280;3928;42.626;23.382;2022-10-16T03:21:33;94889.06;;;9.01;100.00
7768;BME280;3928;42.626;23.382;2022-10-16T03:24:00;94889.03;;;9.07;100.00
7768;BME280;3928;42.626;23.382;2022-10-16T03:26:26;94885.63;;;9.05;100.00
7768;BME280;3928;42.626;23.382;2022-10-16T03:28:53;94891.59;;;8.96;100.00
7768;BME280;3928;42.626;23.382;2022-10-16T03:31:20;94889.06;;;8.83;100.00
7768;BME280;3928;42.626;23.382;2022-10-16T03:33:47;94888.22;;;8.84;100.00
7768;BME280;3928;42.626;23.382;2022-10-16T03:36:15;94888.19;;;8.85;100.00
7768;BME280;3928;42.626;23.382;2022-10-16T03:38:42;94896.72;;;8.86;100.00
7768;BME280;3928;42.626;23.382;2022-10-16T03:41:09;94894.19;;;8.73;100.00
7768;BME280;3928;42.626;23.382;2022-10-16T03:43:37;94864.34;;;8.45;100.00
7768;BME280;3928;42.626;23.382;2022-10-16T03:46:05;94883.97;;;8.54;100.00
7768;BME280;3928;42.626;23.382;2022-10-16T03:48:32;94892.50;;;8.53;100.00
7768;BME280;3928;42.626;23.382;2022-10-16T03:50:59;94888.22;;;8.56;100.00
7768;BME280;3928;42.626;23.382;2022-10-16T03:53:28;94888.22;;;8.58;100.00
7768;BME280;3928;42.626;23.382;2022-10-16T03:55:55;94889.91;;;8.60;100.00
7768;BME280;3928;42.626;23.382;2022-10-16T03:58:22;94885.66;;;8.62;100.00
7768;BME280;3928;42.626;23.382;2022-10-16T04:00:48;94888.22;;;8.70;100.00
7768;BME280;3928;42.626;23.382;2022-10-16T04:03:15;94881.38;;;8.61;100.00
7768;BME280;3928;42.626;23.382;2022-10-16T04:05:44;94877.13;;;8.54;100.00
7768;BME280;3928;42.626;23.382;2022-10-16T04:08:11;94885.63;;;8.50;100.00
7768;BME280;3928;42.626;23.382;2022-10-16T04:10:39;94877.97;;;8.35;100.00
7768;BME280;3928;42.626;23.382;2022-10-16T04:13:07;94885.59;;;8.29;100.00
7768;BME280;3928;42.626;23.382;2022-10-16T04:15:34;94839.53;;;7.98;100.00
7768;BME280;3928;42.626;23.382;2022-10-16T04:18:01;94886.44;;;8.28;100.00
7768;BME280;3928;42.626;23.382;2022-10-16T04:20:28;94889.91;;;8.34;100.00
7768;BME280;3928;42.626;23.382;2022-10-16T04:22:55;94878.84;;;8.41;100.00
7768;BME280;3928;42.626;23.382;2022-10-16T04:25:22;94886.50;;;8.50;100.00
7768;BME280;3928;42.626;23.382;2022-10-16T04:27:52;94884.78;;;8.51;100.00
7768;BME280;3928;42.626;23.382;2022-10-16T04:30:19;94888.19;;;8.52;100.00
7768;BME280;3928;42.626;23.382;2022-10-16T04:32:47;94882.22;;;8.39;100.00
7768;BME280;3928;42.626;23.382;2022-10-16T04:35:16;94884.72;;;8.28;100.00
7768;BME280;3928;42.626;23.382;2022-10-16T04:37:43;94886.41;;;8.11;100.00
7768;BME280;3928;42.626;23.382;2022-10-16T04:40:10;94894.94;;;8.11;100.00
7768;BME280;3928;42.626;23.382;2022-10-16T04:42:37;94900.88;;;7.98;100.00
7768;BME280;3928;42.626;23.382;2022-10-16T04:45:07;94894.88;;;7.88;100.00
7768;BME280;3928;42.626;23.382;2022-10-16T04:47:34;94905.13;;;7.99;100.00
7768;BME280;3928;42.626;23.382;2022-10-16T04:50:01;94911.09;;;8.01;100.00
7768;BME280;3928;42.626;23.382;2022-10-16T04:52:28;94916.25;;;8.07;100.00
7768;BME280;3928;42.626;23.382;2022-10-16T04:54:56;94906.03;;;8.12;100.00
7768;BME280;3928;42.626;23.382;2022-10-16T04:57:26;94912.88;;;8.20;100.00
7768;BME280;3928;42.626;23.382;2022-10-16T04:59:53;94910.31;;;8.20;100.00
7768;BME280;3928;42.626;23.382;2022-10-16T05:02:23;94909.44;;;8.06;100.00
7768;BME280;3928;42.626;23.382;2022-10-16T05:04:50;94853.09;;;7.70;100.00
7768;BME280;3928;42.626;23.382;2022-10-16T05:07:17;94926.47;;;8.06;100.00
7768;BME280;3928;42.626;23.382;2022-10-16T05:09:44;94920.47;;;8.04;100.00
7768;BME280;3928;42.626;23.382;2022-10-16T05:12:10;94923.03;;;7.99;100.00
7768;BME280;3928;42.626;23.382;2022-10-16T05:14:37;94926.47;;;8.10;100.00
7768;BME280;3928;42.626;23.382;2022-10-16T05:17:05;94939.25;;;8.16;100.00
7768;BME280;3928;42.626;23.382;2022-10-16T05:19:34;94938.44;;;8.20;100.00
7768;BME280;3928;42.626;23.382;2022-10-16T05:22:02;94943.53;;;8.20;100.00
7768;BME280;3928;42.626;23.382;2022-10-16T05:24:29;94938.44;;;8.27;100.00
7768;BME280;3928;42.626;23.382;2022-10-16T05:26:56;94944.41;;;8.27;100.00
7768;BME280;3928;42.626;23.382;2022-10-16T05:29:23;94934.16;;;8.19;100.00
7768;BME280;3928;42.626;23.382;2022-10-16T05:31:51;94937.59;;;8.20;100.00
7768;BME280;3928;42.626;23.382;2022-10-16T05:34:18;94876.13;;;7.83;100.00
7768;BME280;3928;42.626;23.382;2022-10-16T05:36:47;94944.44;;;8.32;100.00
7768;BME280;3928;42.626;23.382;2022-10-16T05:39:14;94942.75;;;8.37;100.00
7768;BME280;3928;42.626;23.382;2022-10-16T05:41:42;94943.63;;;8.43;100.00
7768;BME280;3928;42.626;23.382;2022-10-16T05:44:08;94937.59;;;8.21;100.00
7768;BME280;3928;42.626;23.382;2022-10-16T05:46:36;94944.41;;;8.29;100.00
7768;BME280;3928;42.626;23.382;2022-10-16T05:49:03;94953.81;;;8.33;100.00
7768;BME280;3928;42.626;23.382;2022-10-16T05:51:30;94952.16;;;8.44;100.00
7768;BME280;3928;42.626;23.382;2022-10-16T05:53:58;94956.44;;;8.54;100.00
7768;BME280;3928;42.626;23.382;2022-10-16T05:56:25;94960.69;;;8.58;100.00
7768;BME280;3928;42.626;23.382;2022-10-16T05:58:52;94953.03;;;8.63;100.00
7768;BME280;3928;42.626;23.382;2022-10-16T06:01:19;94970.09;;;8.73;100.00
7768;BME280;3928;42.626;23.382;2022-10-16T06:03:49;94978.66;;;8.76;100.00
7768;BME280;3928;42.626;23.382;2022-10-16T06:06:20;94975.22;;;8.93;100.00
7768;BME280;3928;42.626;23.382;2022-10-16T06:08:48;94993.13;;;8.97;100.00
7768;BME280;3928;42.626;23.382;2022-10-16T06:11:18;94975.25;;;9.13;100.00
7768;BME280;3928;42.626;23.382;2022-10-16T06:13:49;94985.47;;;9.29;100.00
7768;BME280;3928;42.626;23.382;2022-10-16T06:16:17;94988.00;;;9.51;100.00
7768;BME280;3928;42.626;23.382;2022-10-16T06:18:44;94990.53;;;9.72;100.00
7768;BME280;3928;42.626;23.382;2022-10-16T06:21:12;94993.03;;;9.87;99.74
7768;BME280;3928;42.626;23.382;2022-10-16T06:23:41;94996.38;;;10.11;98.46
7768;BME280;3928;42.626;23.382;2022-10-16T06:26:08;95001.47;;;10.26;96.72
7768;BME280;3928;42.626;23.382;2022-10-16T06:28:37;94997.16;;;10.34;97.11
7768;BME280;3928;42.626;23.382;2022-10-16T06:31:06;94994.50;;;10.51;95.18
7768;BME280;3928;42.626;23.382;2022-10-16T06:33:33;94972.28;;;10.48;94.24
7768;BME280;3928;42.626;23.382;2022-10-16T06:36:01;95013.13;;;10.85;93.11
7768;BME280;3928;42.626;23.382;2022-10-16T06:38:29;95013.84;;;11.05;92.99
7768;BME280;3928;42.626;23.382;2022-10-16T06:40:57;95011.16;;;11.21;89.67
7768;BME280;3928;42.626;23.382;2022-10-16T06:43:25;95018.81;;;11.28;90.23
7768;BME280;3928;42.626;23.382;2022-10-16T06:45:55;95022.09;;;11.46;89.97
7768;BME280;3928;42.626;23.382;2022-10-16T06:48:23;95021.88;;;11.70;87.59
7768;BME280;3928;42.626;23.382;2022-10-16T06:50:57;95023.47;;;11.86;86.65
7768;BME280;3928;42.626;23.382;2022-10-16T06:53:25;95017.34;;;11.98;84.98
7768;BME280;3928;42.626;23.382;2022-10-16T06:55:53;95029.78;;;12.36;84.36
7768;BME280;3928;42.626;23.382;2022-10-16T06:58:20;95030.25;;;12.67;83.39
7768;BME280;3928;42.626;23.382;2022-10-16T07:00:47;95035.94;;;12.89;81.10
7768;BME280;3928;42.626;23.382;2022-10-16T07:03:15;95037.56;;;12.98;80.60
7768;BME280;3928;42.626;23.382;2022-10-16T07:05:43;95040.78;;;13.12;81.82
7768;BME280;3928;42.626;23.382;2022-10-16T07:08:09;95032.56;;;13.45;80.49
7768;BME280;3928;42.626;23.382;2022-10-16T07:10:36;95038.13;;;13.73;77.57
7768;BME280;3928;42.626;23.382;2022-10-16T07:13:03;95038.81;;;13.82;76.49
7768;BME280;3928;42.626;23.382;2022-10-16T07:15:32;95046.41;;;13.91;77.33
7768;BME280;3928;42.626;23.382;2022-10-16T07:18:00;95048.78;;;14.03;75.31
7768;BME280;3928;42.626;23.382;2022-10-16T07:20:29;95047.66;;;14.16;79.34
7768;BME280;3928;42.626;23.382;2022-10-16T07:22:56;95046.94;;;14.54;82.43
7768;BME280;3928;42.626;23.382;2022-10-16T07:25:23;95048.16;;;14.80;80.79
7768;BME280;3928;42.626;23.382;2022-10-16T07:27:51;95056.56;;;15.30;74.19
7768;BME280;3928;42.626;23.382;2022-10-16T07:30:22;95049.78;;;15.63;71.46
7768;BME280;3928;42.626;23.382;2022-10-16T07:32:49;95037.69;;;15.96;67.98
7768;BME280;3928;42.626;23.382;2022-10-16T07:35:16;95053.72;;;16.43;73.04
7768;BME280;3928;42.626;23.382;2022-10-16T07:37:45;95048.88;;;16.92;66.31
7768;BME280;3928;42.626;23.382;2022-10-16T07:40:13;95050.97;;;17.37;64.20
7768;BME280;3928;42.626;23.382;2022-10-16T07:42:40;95049.91;;;17.72;59.96
7768;BME280;3928;42.626;23.382;2022-10-16T07:45:07;95057.66;;;18.00;58.84
7768;BME280;3928;42.626;23.382;2022-10-16T07:47:34;95059.19;;;18.31;58.23
7768;BME280;3928;42.626;23.382;2022-10-16T07:50:03;95044.59;;;18.52;58.19
7768;BME280;3928;42.626;23.382;2022-10-16T07:52:30;95058.00;;;18.89;55.25
7768;BME280;3928;42.626;23.382;2022-10-16T07:54:58;95060.59;;;19.13;56.80
7768;BME280;3928;42.626;23.382;2022-10-16T07:57:25;95057.78;;;19.17;55.18
7768;BME280;3928;42.626;23.382;2022-10-16T07:59:52;95065.50;;;19.20;55.58
7768;BME280;3928;42.626;23.382;2022-10-16T08:02:19;95056.06;;;19.40;53.35
7768;BME280;3928;42.626;23.382;2022-10-16T08:04:46;95061.44;;;19.59;53.48
7768;BME280;3928;42.626;23.382;2022-10-16T08:07:13;95059.69;;;19.81;53.05
7768;BME280;3928;42.626;23.382;2022-10-16T08:09:40;95064.03;;;20.02;51.64
7768;BME280;3928;42.626;23.382;2022-10-16T08:12:08;95062.38;;;20.20;49.29
7768;BME280;3928;42.626;23.382;2022-10-16T08:14:36;95062.53;;;20.37;47.90
7768;BME280;3928;42.626;23.382;2022-10-16T08:17:03;95066.41;;;20.49;47.56
7768;BME280;3928;42.626;23.382;2022-10-16T08:19:30;95063.06;;;20.66;48.01
7768;BME280;3928;42.626;23.382;2022-10-16T08:21:59;95056.22;;;20.84;45.96
7768;BME280;3928;42.626;23.382;2022-10-16T08:24:26;95055.28;;;21.03;44.76
7768;BME280;3928;42.626;23.382;2022-10-16T08:26:56;95053.34;;;21.09;44.90
7768;BME280;3928;42.626;23.382;2022-10-16T08:29:24;95051.28;;;21.15;43.61
7768;BME280;3928;42.626;23.382;2022-10-16T08:31:51;95035.84;;;21.11;44.78
7768;BME280;3928;42.626;23.382;2022-10-16T08:34:18;95053.78;;;21.37;44.32
7768;BME280;3928;42.626;23.382;2022-10-16T08:36:45;95050.31;;;21.55;43.80
7768;BME280;3928;42.626;23.382;2022-10-16T08:39:13;95050.19;;;21.76;41.14
7768;BME280;3928;42.626;23.382;2022-10-16T08:42:08;95050.22;;;21.93;41.32
7768;BME280;3928;42.626;23.382;2022-10-16T08:44:56;95048.47;;;22.11;40.97
7768;BME280;3928;42.626;23.382;2022-10-16T08:47:39;95040.25;;;22.18;40.78
7768;BME280;3928;42.626;23.382;2022-10-16T08:50:09;95056.25;;;22.47;41.40
7768;BME280;3928;42.626;23.382;2022-10-16T08:52:39;95042.88;;;22.53;37.29
7768;BME280;3928;42.626;23.382;2022-10-16T08:55:17;95039.81;;;22.28;37.52
7768;BME280;3928;42.626;23.382;2022-10-16T08:57:48;95046.72;;;22.29;38.09
7768;BME280;3928;42.626;23.382;2022-10-16T09:00:17;95064.56;;;22.55;37.87
7768;BME280;3928;42.626;23.382;2022-10-16T09:02:49;95065.59;;;22.68;37.12
7768;BME280;3928;42.626;23.382;2022-10-16T09:05:29;95058.63;;;22.86;37.38
7768;BME280;3928;42.626;23.382;2022-10-16T09:08:07;95060.03;;;23.09;35.38
7768;BME280;3928;42.626;23.382;2022-10-16T09:10:44;95049.72;;;23.38;34.56
7768;BME280;3928;42.626;23.382;2022-10-16T09:13:21;95039.03;;;23.58;33.58
7768;BME280;3928;42.626;23.382;2022-10-16T09:15:58;95045.06;;;23.90;33.44
7768;BME280;3928;42.626;23.382;2022-10-16T09:18:34;95050.88;;;24.11;33.20
7768;BME280;3928;42.626;23.382;2022-10-16T09:21:09;95051.28;;;24.19;33.38
7768;BME280;3928;42.626;23.382;2022-10-16T09:23:38;95058.78;;;24.25;33.14
7768;BME280;3928;42.626;23.382;2022-10-16T09:26:11;95054.72;;;24.35;33.74
7768;BME280;3928;42.626;23.382;2022-10-16T09:28:39;95046.59;;;24.40;33.05
7768;BME280;3928;42.626;23.382;2022-10-16T09:31:13;95050.28;;;24.52;32.11
7768;BME280;3928;42.626;23.382;2022-10-16T09:33:42;95055.13;;;24.58;33.38
7768;BME280;3928;42.626;23.382;2022-10-16T09:36:11;95051.59;;;24.73;31.78
7768;BME280;3928;42.626;23.382;2022-10-16T09:38:39;95036.44;;;24.78;30.64
7768;BME280;3928;42.626;23.382;2022-10-16T09:41:14;95048.06;;;24.88;31.79
7768;BME280;3928;42.626;23.382;2022-10-16T09:43:47;95036.81;;;25.00;30.91
7768;BME280;3928;42.626;23.382;2022-10-16T09:46:28;95046.00;;;25.07;31.73
7768;BME280;3928;42.626;23.382;2022-10-16T09:48:56;95036.16;;;25.25;32.50
7768;BME280;3928;42.626;23.382;2022-10-16T09:51:26;95035.66;;;25.47;31.56
7768;BME280;3928;42.626;23.382;2022-10-16T09:53:58;95003.44;;;25.44;31.12
7768;BME280;3928;42.626;23.382;2022-10-16T09:56:29;95038.75;;;25.81;30.16
7768;BME280;3928;42.626;23.382;2022-10-16T09:58:59;95037.38;;;26.02;29.74
7768;BME280;3928;42.626;23.382;2022-10-16T10:04:23;95034.56;;;26.45;29.14
7768;BME280;3928;42.626;23.382;2022-10-16T10:06:52;95037.19;;;26.45;29.71
7768;BME280;3928;42.626;23.382;2022-10-16T10:09:22;95029.81;;;26.63;29.19
7768;BME280;3928;42.626;23.382;2022-10-16T10:11:52;95027.75;;;26.80;28.65
7768;BME280;3928;42.626;23.382;2022-10-16T10:14:28;95016.03;;;26.59;27.50
7768;BME280;3928;42.626;23.382;2022-10-16T10:17:11;95019.50;;;26.07;28.84
7768;BME280;3928;42.626;23.382;2022-10-16T10:19:39;94999.91;;;25.99;29.29
7768;BME280;3928;42.626;23.382;2022-10-16T10:22:23;95004.94;;;26.29;29.71
7768;BME280;3928;42.626;23.382;2022-10-16T10:24:59;95012.06;;;26.54;29.52
7768;BME280;3928;42.626;23.382;2022-10-16T10:27:32;95021.53;;;26.81;29.65
7768;BME280;3928;42.626;23.382;2022-10-16T10:30:08;95021.13;;;27.13;28.82
7768;BME280;3928;42.626;23.382;2022-10-16T10:32:46;95017.25;;;27.43;27.95
7768;BME280;3928;42.626;23.382;2022-10-16T10:35:22;95010.38;;;27.53;27.51
7768;BME280;3928;42.626;23.382;2022-10-16T10:38:02;95005.38;;;27.61;28.35
7768;BME280;3928;42.626;23.382;2022-10-16T10:40:40;95016.16;;;27.71;27.54
7768;BME280;3928;42.626;23.382;2022-10-16T10:43:16;95004.28;;;27.76;27.64
7768;BME280;3928;42.626;23.382;2022-10-16T10:45:47;95005.00;;;28.02;27.00
7768;BME280;3928;42.626;23.382;2022-10-16T10:48:27;94998.69;;;28.16;25.58
7768;BME280;3928;42.626;23.382;2022-10-16T10:51:10;94987.09;;;27.83;25.93
7768;BME280;3928;42.626;23.382;2022-10-16T10:53:47;94998.34;;;27.85;26.67
7768;BME280;3928;42.626;23.382;2022-10-16T10:56:30;94994.22;;;28.05;26.35
7768;BME280;3928;42.626;23.382;2022-10-16T11:02:15;94986.84;;;28.45;25.07
7768;BME280;3928;42.626;23.382;2022-10-16T11:04:54;94983.97;;;28.60;25.25
7768;BME280;3928;42.626;23.382;2022-10-16T11:07:28;94988.78;;;28.77;25.17
7768;BME280;3928;42.626;23.382;2022-10-16T11:10:03;94977.31;;;28.89;24.97
7768;BME280;3928;42.626;23.382;2022-10-16T11:12:34;94977.06;;;29.03;24.93
7768;BME280;3928;42.626;23.382;2022-10-16T11:15:05;94976.56;;;29.21;24.81
7768;BME280;3928;42.626;23.382;2022-10-16T11:17:39;94978.94;;;29.35;24.66
7768;BME280;3928;42.626;23.382;2022-10-16T11:20:16;94917.72;;;29.07;23.09
7768;BME280;3928;42.626;23.382;2022-10-16T11:22:48;94976.81;;;29.51;23.04
7768;BME280;3928;42.626;23.382;2022-10-16T11:25:20;94977.50;;;29.64;22.84
7768;BME280;3928;42.626;23.382;2022-10-16T11:27:50;94973.91;;;29.54;22.29
7768;BME280;3928;42.626;23.382;2022-10-16T11:30:21;94971.13;;;29.67;22.45
7768;BME280;3928;42.626;23.382;2022-10-16T11:32:56;94974.13;;;29.94;22.25
7768;BME280;3928;42.626;23.382;2022-10-16T11:35:37;94974.41;;;30.23;21.82
7768;BME280;3928;42.626;23.382;2022-10-16T11:38:11;94967.31;;;30.45;21.29
7768;BME280;3928;42.626;23.382;2022-10-16T11:40:42;94970.47;;;30.60;20.67
7768;BME280;3928;42.626;23.382;2022-10-16T11:43:15;94973.97;;;30.60;20.93
7768;BME280;3928;42.626;23.382;2022-10-16T11:45:46;94973.66;;;30.74;20.76
7768;BME280;3928;42.626;23.382;2022-10-16T11:48:23;94978.13;;;31.04;21.36
7768;BME280;3928;42.626;23.382;2022-10-16T11:50:54;94970.78;;;31.18;20.54
7768;BME280;3928;42.626;23.382;2022-10-16T11:53:34;94966.16;;;31.40;20.55
7768;BME280;3928;42.626;23.382;2022-10-16T11:56:05;94959.16;;;31.39;20.20
7768;BME280;3928;42.626;23.382;2022-10-16T11:58:37;94971.22;;;31.63;20.33
7768;BME280;3928;42.626;23.382;2022-10-16T12:01:17;94966.25;;;31.79;20.36
7768;BME280;3928;42.626;23.382;2022-10-16T12:03:48;94957.56;;;31.96;20.71
7768;BME280;3928;42.626;23.382;2022-10-16T12:06:28;94963.59;;;32.08;20.17
7768;BME280;3928;42.626;23.382;2022-10-16T12:08:58;94964.28;;;32.20;19.81
7768;BME280;3928;42.626;23.382;2022-10-16T12:11:37;94967.41;;;32.44;19.79
7768;BME280;3928;42.626;23.382;2022-10-16T12:17:24;94968.84;;;32.76;18.04
7768;BME280;3928;42.626;23.382;2022-10-16T12:19:59;94959.75;;;32.88;19.09
7768;BME280;3928;42.626;23.382;2022-10-16T12:22:29;94965.31;;;33.04;19.09
7768;BME280;3928;42.626;23.382;2022-10-16T12:24:57;94960.75;;;33.14;19.04
7768;BME280;3928;42.626;23.382;2022-10-16T12:27:28;94899.56;;;32.87;18.83
7768;BME280;3928;42.626;23.382;2022-10-16T12:29:57;94940.13;;;32.99;18.06
7768;BME280;3928;42.626;23.382;2022-10-16T12:32:29;94958.97;;;32.58;19.44
7768;BME280;3928;42.626;23.382;2022-10-16T12:34:57;94967.59;;;32.80;19.35
7768;BME280;3928;42.626;23.382;2022-10-16T12:37:26;94965.31;;;33.04;19.30
7768;BME280;3928;42.626;23.382;2022-10-16T12:39:56;94966.09;;;33.14;19.03
7768;BME280;3928;42.626;23.382;2022-10-16T12:42:32;94961.66;;;33.05;19.51
7768;BME280;3928;42.626;23.382;2022-10-16T12:45:00;94972.00;;;33.08;18.85
7768;BME280;3928;42.626;23.382;2022-10-16T12:47:47;94972.06;;;33.26;18.92
7768;BME280;3928;42.626;23.382;2022-10-16T12:50:29;94979.31;;;33.34;18.93
7768;BME280;3928;42.626;23.382;2022-10-16T12:52:57;94976.03;;;33.50;18.44
7768;BME280;3928;42.626;23.382;2022-10-16T12:55:26;94977.38;;;33.63;18.56
7768;BME280;3928;42.626;23.382;2022-10-16T12:58:15;94981.88;;;33.81;17.69
7768;BME280;3928;42.626;23.382;2022-10-16T13:00:54;94983.38;;;33.65;17.93
7768;BME280;3928;42.626;23.382;2022-10-16T13:03:54;94984.28;;;33.74;19.19
7768;BME280;3928;42.626;23.382;2022-10-16T13:06:33;94969.44;;;33.71;17.91
7768;BME280;3928;42.626;23.382;2022-10-16T13:09:22;94984.00;;;33.77;18.71
7768;BME280;3928;42.626;23.382;2022-10-16T13:12:18;94986.88;;;33.84;17.98
7768;BME280;3928;42.626;23.382;2022-10-16T13:15:15;94981.47;;;34.03;18.31
7768;BME280;3928;42.626;23.382;2022-10-16T13:17:52;94987.25;;;34.16;18.30
7768;BME280;3928;42.626;23.382;2022-10-16T13:20:29;94987.69;;;34.29;18.31
7768;BME280;3928;42.626;23.382;2022-10-16T13:23:11;94981.25;;;34.50;18.35
7768;BME280;3928;42.626;23.382;2022-10-16T13:25:48;94982.03;;;34.68;17.99
7768;BME280;3928;42.626;23.382;2022-10-16T13:28:29;94970.34;;;34.61;18.01
7768;BME280;3928;42.626;23.382;2022-10-16T13:30:58;94974.34;;;34.65;18.15
7768;BME280;3928;42.626;23.382;2022-10-16T13:33:31;94975.72;;;34.69;18.19
7768;BME280;3928;42.626;23.382;2022-10-16T13:35:58;94980.44;;;34.75;18.08
7768;BME280;3928;42.626;23.382;2022-10-16T13:38:27;94987.75;;;34.73;17.90
7768;BME280;3928;42.626;23.382;2022-10-16T13:40:56;94986.28;;;34.79;17.77
7768;BME280;3928;42.626;23.382;2022-10-16T13:43:27;94867.25;;;34.00;17.26